createdAt,value
2018-09-24T00:02:08.639Z,18.62
2018-09-24T00:04:36.246Z,10.18
2018-09-24T00:07:03.977Z,11.35
2018-09-24T00:09:32.223Z,12.33
2018-09-24T00:11:59.860Z,10.95
2018-09-24T00:14:34.185Z,12.93
2018-09-24T00:17:01.853Z,10.53
2018-09-24T00:19:29.455Z,11.08
2018-09-24T00:21:57.176Z,8.85
2018-09-24T00:24:24.803Z,8.38
2018-09-24T00:26:52.478Z,10.38
2018-09-24T00:29:20.070Z,15.60
2018-09-24T00:31:50.424Z,9.35
2018-09-24T00:34:18.029Z,8.85
2018-09-24T00:36:45.621Z,8.43
2018-09-24T00:39:14.089Z,8.18
2018-09-24T00:41:45.907Z,6.83
2018-09-24T00:44:13.513Z,8.63
2018-09-24T00:46:46.294Z,14.60
2018-09-24T00:49:13.923Z,13.25
2018-09-24T00:51:41.583Z,8.58
2018-09-24T00:54:09.320Z,10.10
2018-09-24T00:56:36.942Z,9.23
2018-09-24T00:59:04.676Z,12.18
2018-09-24T01:01:33.224Z,11.00
2018-09-24T01:04:00.891Z,6.90
2018-09-24T01:06:29.027Z,8.23
2018-09-24T01:08:56.644Z,8.15
2018-09-24T01:11:24.276Z,11.53
2018-09-24T01:13:53.048Z,11.10
2018-09-24T01:16:20.661Z,7.15
2018-09-24T01:18:48.371Z,9.13
2018-09-24T01:21:16.707Z,8.33
2018-09-24T01:23:44.292Z,17.50
2018-09-24T01:26:11.936Z,8.85
2018-09-24T01:28:39.563Z,7.50
2018-09-24T01:31:07.211Z,10.65
2018-09-24T01:33:38.894Z,11.53
2018-09-24T01:36:08.792Z,7.15
2018-09-24T01:38:36.490Z,7.25
2018-09-24T01:41:04.187Z,14.75
2018-09-24T01:43:31.804Z,13.40
2018-09-24T01:45:59.553Z,8.65
2018-09-24T01:48:27.556Z,10.48
2018-09-24T01:50:55.232Z,10.88
2018-09-24T01:53:23.014Z,10.40
2018-09-24T01:55:51.737Z,9.75
2018-09-24T01:58:21.198Z,10.45
2018-09-24T02:00:49.335Z,8.48
2018-09-24T02:03:18.377Z,12.68
2018-09-24T02:05:45.981Z,8.48
2018-09-24T02:08:13.583Z,12.05
2018-09-24T02:10:47.984Z,11.68
2018-09-24T02:13:15.596Z,9.45
2018-09-24T02:15:43.240Z,11.38
2018-09-24T02:18:10.886Z,9.00
2018-09-24T02:20:45.369Z,9.70
2018-09-24T02:23:13.484Z,14.20
2018-09-24T02:25:41.250Z,15.43
2018-09-24T02:28:09.008Z,8.40
2018-09-24T02:30:36.596Z,8.48
2018-09-24T02:33:11.328Z,8.28
2018-09-24T02:35:45.938Z,13.05
2018-09-24T02:38:13.839Z,12.35
2018-09-24T02:40:41.725Z,15.25
2018-09-24T02:43:09.605Z,15.43
2018-09-24T02:45:37.522Z,12.73
2018-09-24T02:48:05.316Z,8.03
2018-09-24T02:50:37.239Z,11.05
2018-09-24T02:53:06.069Z,11.25
2018-09-24T02:55:38.680Z,14.20
2018-09-24T02:58:06.645Z,12.68
2018-09-24T03:00:34.463Z,15.98
2018-09-24T03:03:10.637Z,15.60
2018-09-24T03:05:38.491Z,15.25
2018-09-24T03:08:07.620Z,12.07
2018-09-24T03:10:35.585Z,10.72
2018-09-24T03:13:03.465Z,13.38
2018-09-24T03:15:36.826Z,14.80
2018-09-24T03:18:09.052Z,13.28
2018-09-24T03:20:41.880Z,9.13
2018-09-24T03:23:09.758Z,11.97
2018-09-24T03:25:42.339Z,13.35
2018-09-24T03:28:10.143Z,11.95
2018-09-24T03:30:39.528Z,12.98
2018-09-24T03:33:07.384Z,14.53
2018-09-24T03:35:35.306Z,15.10
2018-09-24T03:38:03.399Z,11.97
2018-09-24T03:40:37.115Z,10.25
2018-09-24T03:43:05.141Z,13.45
2018-09-24T03:45:33.160Z,11.30
2018-09-24T03:48:00.957Z,13.95
2018-09-24T03:50:29.151Z,13.25
2018-09-24T03:52:57.025Z,18.65
2018-09-24T03:55:24.831Z,9.10
2018-09-24T03:57:52.698Z,14.07
2018-09-24T04:00:20.489Z,14.03
2018-09-24T04:02:48.268Z,14.30
2018-09-24T04:05:21.773Z,14.40
2018-09-24T04:07:56.614Z,11.90
2018-09-24T04:10:30.095Z,12.28
2018-09-24T04:13:03.569Z,12.98
2018-09-24T04:15:36.923Z,13.55
2018-09-24T04:18:10.708Z,12.65
2018-09-24T04:20:44.920Z,14.13
2018-09-24T04:23:18.465Z,16.95
2018-09-24T04:25:51.931Z,13.70
2018-09-24T04:28:25.623Z,10.80
2018-09-24T04:30:59.116Z,13.53
2018-09-24T04:33:32.389Z,15.30
2018-09-24T04:36:05.993Z,16.65
2018-09-24T04:38:39.584Z,10.00
2018-09-24T04:41:13.267Z,20.95
2018-09-24T04:43:48.114Z,13.95
2018-09-24T04:46:21.498Z,15.30
2018-09-24T04:48:54.936Z,14.25
2018-09-24T04:51:28.432Z,12.65
2018-09-24T04:54:01.731Z,10.85
2018-09-24T04:56:36.146Z,13.13
2018-09-24T04:59:10.080Z,15.05
2018-09-24T05:01:43.522Z,12.30
2018-09-24T05:04:18.169Z,12.35
2018-09-24T05:06:51.579Z,14.25
2018-09-24T05:09:25.068Z,9.25
2018-09-24T05:12:02.482Z,17.92
2018-09-24T05:14:36.128Z,12.88
2018-09-24T05:17:10.579Z,14.53
2018-09-24T05:19:47.990Z,8.58
2018-09-24T05:22:24.810Z,16.48
2018-09-24T05:24:58.424Z,9.40
2018-09-24T05:27:31.736Z,12.53
2018-09-24T05:30:04.977Z,16.67
2018-09-24T05:32:39.259Z,16.23
2018-09-24T05:35:13.524Z,13.18
2018-09-24T05:37:47.032Z,12.90
2018-09-24T05:40:20.744Z,12.90
2018-09-24T05:42:57.713Z,14.05
2018-09-24T05:45:30.947Z,9.45
2018-09-24T05:48:05.040Z,9.15
2018-09-24T05:50:38.585Z,10.08
2018-09-24T05:53:12.270Z,9.78
2018-09-24T05:55:45.635Z,12.58
2018-09-24T05:58:19.209Z,11.83
2018-09-24T06:00:52.417Z,11.93
2018-09-24T06:03:25.770Z,14.33
2018-09-24T06:06:00.956Z,10.95
2018-09-24T06:08:34.152Z,10.93
2018-09-24T06:11:07.358Z,8.30
2018-09-24T06:13:41.394Z,7.45
2018-09-24T06:16:14.957Z,8.83
2018-09-24T06:18:48.321Z,14.50
2018-09-24T06:21:21.721Z,13.70
2018-09-24T06:23:58.076Z,12.05
2018-09-24T06:26:34.353Z,11.00
2018-09-24T06:29:07.564Z,14.87
2018-09-24T06:31:40.769Z,8.50
2018-09-24T06:34:14.032Z,10.28
2018-09-24T06:36:49.866Z,11.63
2018-09-24T06:39:23.133Z,12.20
2018-09-24T06:41:56.380Z,9.20
2018-09-24T06:44:29.624Z,16.77
2018-09-24T06:47:02.788Z,17.65
2018-09-24T06:49:36.024Z,11.50
2018-09-24T06:52:09.383Z,16.32
2018-09-24T06:54:42.684Z,11.12
2018-09-24T06:57:15.941Z,10.32
2018-09-24T06:59:49.061Z,11.50
2018-09-24T07:02:22.431Z,12.45
2018-09-24T07:04:55.564Z,14.98
2018-09-24T07:07:28.776Z,9.23
2018-09-24T07:10:04.344Z,8.78
2018-09-24T07:12:38.362Z,9.95
2018-09-24T07:15:11.752Z,7.90
2018-09-24T07:17:44.896Z,11.60
2018-09-24T07:20:18.082Z,11.97
2018-09-24T07:22:52.310Z,13.95
2018-09-24T07:25:25.524Z,12.88
2018-09-24T07:27:58.652Z,12.95
2018-09-24T07:30:34.186Z,7.17
2018-09-24T07:33:07.540Z,10.68
2018-09-24T07:35:40.735Z,8.58
2018-09-24T07:38:16.515Z,9.45
2018-09-24T07:40:49.748Z,11.97
2018-09-24T07:43:22.991Z,10.18
2018-09-24T07:45:57.319Z,11.60
2018-09-24T07:48:30.554Z,9.23
2018-09-24T07:51:03.826Z,11.55
2018-09-24T07:53:37.088Z,11.68
2018-09-24T07:56:15.212Z,8.65
2018-09-24T07:58:48.567Z,11.08
2018-09-24T08:01:21.823Z,9.58
2018-09-24T08:03:57.013Z,10.78
2018-09-24T08:06:30.205Z,7.37
2018-09-24T08:09:07.962Z,10.95
2018-09-24T08:11:41.403Z,6.08
2018-09-24T08:14:14.793Z,6.40
2018-09-24T08:16:59.773Z,8.48
2018-09-24T08:19:32.983Z,8.15
2018-09-24T08:22:08.775Z,8.70
2018-09-24T08:24:42.141Z,8.93
2018-09-24T08:27:15.498Z,19.48
2018-09-24T08:29:51.687Z,6.50
2018-09-24T08:32:24.883Z,9.50
2018-09-24T08:34:58.110Z,6.10
2018-09-24T08:37:32.285Z,8.88
2018-09-24T08:40:06.729Z,9.08
2018-09-24T08:42:40.135Z,8.63
2018-09-24T08:45:15.079Z,6.92
2018-09-24T08:47:48.414Z,5.33
2018-09-24T08:50:21.594Z,4.85
2018-09-24T08:52:55.448Z,8.45
2018-09-24T08:55:28.601Z,5.33
2018-09-24T08:58:01.831Z,6.25
2018-09-24T09:03:13.572Z,3.15
2018-09-24T09:05:46.737Z,5.10
2018-09-24T09:08:24.611Z,6.40
2018-09-24T09:10:58.035Z,5.43
2018-09-24T09:13:31.242Z,11.03
2018-09-24T09:16:06.350Z,3.83
2018-09-24T09:18:39.664Z,7.05
2018-09-24T09:21:13.068Z,4.53
2018-09-24T09:23:46.592Z,6.30
2018-09-24T09:26:20.054Z,5.17
2018-09-24T09:28:53.299Z,10.73
2018-09-24T09:31:29.896Z,4.37
2018-09-24T09:34:03.181Z,3.50
2018-09-24T09:36:36.566Z,5.27
2018-09-24T09:39:13.771Z,17.83
2018-09-24T09:41:47.519Z,5.62
2018-09-24T09:44:20.785Z,8.83
2018-09-24T09:46:54.732Z,4.77
2018-09-24T09:49:28.164Z,5.80
2018-09-24T09:52:01.353Z,5.03
2018-09-24T09:54:34.942Z,3.10
2018-09-24T09:57:08.431Z,3.80
2018-09-24T09:59:41.780Z,9.90
2018-09-24T10:02:18.581Z,3.03
2018-09-24T10:04:51.924Z,4.73
2018-09-24T10:07:25.490Z,3.27
2018-09-24T10:10:02.026Z,4.40
2018-09-24T10:12:35.123Z,5.67
2018-09-24T10:15:08.534Z,5.07
2018-09-24T10:17:45.080Z,2.20
2018-09-24T10:20:18.544Z,1.50
2018-09-24T10:22:51.822Z,1.60
2018-09-24T10:25:24.962Z,1.47
2018-09-24T10:27:58.191Z,1.67
2018-09-24T10:30:31.488Z,3.80
2018-09-24T10:33:04.697Z,2.00
2018-09-24T10:35:38.130Z,1.40
2018-09-24T10:38:11.855Z,2.63
2018-09-24T10:40:45.026Z,1.30
2018-09-24T10:43:18.410Z,3.50
2018-09-24T10:45:51.787Z,6.67
2018-09-24T10:48:24.892Z,4.30
2018-09-24T10:50:58.081Z,3.13
2018-09-24T10:53:31.352Z,1.80
2018-09-24T10:56:04.616Z,2.90
2018-09-24T10:58:37.833Z,2.13
2018-09-24T11:01:11.547Z,2.00
2018-09-24T11:03:44.762Z,2.40
2018-09-24T11:06:17.936Z,3.17
2018-09-24T11:08:51.388Z,2.83
2018-09-24T11:11:24.622Z,1.83
2018-09-24T11:13:57.857Z,2.20
2018-09-24T11:16:31.169Z,2.63
2018-09-24T11:19:04.280Z,1.87
2018-09-24T11:21:37.391Z,1.10
2018-09-24T11:24:10.576Z,3.00
2018-09-24T11:26:43.996Z,2.10
2018-09-24T11:29:17.256Z,1.90
2018-09-24T11:31:50.605Z,3.17
2018-09-24T11:34:23.847Z,1.80
2018-09-24T11:36:57.216Z,2.37
2018-09-24T11:39:30.630Z,2.40
2018-09-24T11:42:03.946Z,2.37
2018-09-24T11:44:37.227Z,2.93
2018-09-24T11:47:11.039Z,2.63
2018-09-24T11:49:44.409Z,2.20
2018-09-24T11:52:17.778Z,2.37
2018-09-24T11:54:51.011Z,3.37
2018-09-24T11:57:24.212Z,2.73
2018-09-24T11:59:57.409Z,2.80
2018-09-24T12:02:34.278Z,2.80
2018-09-24T12:05:07.473Z,3.90
2018-09-24T12:07:40.944Z,2.30
2018-09-24T12:10:17.255Z,3.20
2018-09-24T12:12:50.516Z,5.50
2018-09-24T12:15:23.716Z,3.03
2018-09-24T12:17:58.027Z,4.83
2018-09-24T12:20:31.340Z,3.93
2018-09-24T12:23:04.531Z,1.63
2018-09-24T12:25:38.822Z,1.57
2018-09-24T12:28:12.485Z,3.97
2018-09-24T12:30:45.777Z,1.10
2018-09-24T12:33:20.656Z,2.83
2018-09-24T12:35:54.037Z,2.30
2018-09-24T12:38:27.322Z,1.47
2018-09-24T12:41:01.593Z,1.23
2018-09-24T12:43:34.960Z,1.20
2018-09-24T12:46:08.203Z,1.07
2018-09-24T12:48:44.183Z,4.63
2018-09-24T12:51:17.415Z,1.80
2018-09-24T12:53:50.685Z,1.00
2018-09-24T12:56:24.462Z,2.63
2018-09-24T12:58:57.858Z,1.77
2018-09-24T13:01:31.060Z,1.77
2018-09-24T13:04:07.246Z,1.60
2018-09-24T13:06:40.518Z,0.80
2018-09-24T13:09:13.699Z,1.50
2018-09-24T13:11:47.942Z,2.20
2018-09-24T13:14:21.280Z,1.23
2018-09-24T13:16:54.538Z,4.13
2018-09-24T13:19:28.415Z,1.80
2018-09-24T13:22:01.525Z,2.73
2018-09-24T13:24:34.789Z,2.50
2018-09-24T13:27:09.028Z,2.73
2018-09-24T13:29:42.347Z,5.03
2018-09-24T13:32:15.524Z,3.53
2018-09-24T13:34:50.291Z,3.37
2018-09-24T13:37:23.531Z,3.93
2018-09-24T13:39:56.800Z,3.13
2018-09-24T13:42:30.910Z,3.37
2018-09-24T13:45:04.233Z,3.50
2018-09-24T13:47:37.750Z,3.60
2018-09-24T13:50:11.716Z,3.07
2018-09-24T13:52:45.063Z,2.70
2018-09-24T13:55:18.474Z,5.40
2018-09-24T13:57:52.105Z,1.27
2018-09-24T14:00:25.380Z,8.13
2018-09-24T14:02:58.627Z,1.43
2018-09-24T14:05:32.690Z,4.00
2018-09-24T14:08:06.165Z,0.90
2018-09-24T14:10:39.724Z,2.20
2018-09-24T14:13:14.984Z,5.97
2018-09-24T14:15:48.455Z,3.10
2018-09-24T14:18:21.907Z,3.27
2018-09-24T14:20:55.211Z,1.37
2018-09-24T14:23:28.610Z,0.90
2018-09-24T14:26:01.893Z,2.20
2018-09-24T14:28:35.268Z,2.77
2018-09-24T14:31:08.602Z,2.20
2018-09-24T14:33:41.818Z,1.10
2018-09-24T14:36:15.099Z,3.63
2018-09-24T14:38:48.476Z,4.77
2018-09-24T14:41:21.718Z,3.00
2018-09-24T14:43:55.100Z,6.50
2018-09-24T14:46:28.541Z,2.50
2018-09-24T14:49:01.837Z,3.40
2018-09-24T14:51:35.206Z,3.10
2018-09-24T14:54:08.483Z,3.27
2018-09-24T14:56:41.706Z,3.63
2018-09-24T14:59:15.198Z,3.20
2018-09-24T15:01:48.375Z,3.20
2018-09-24T15:04:21.630Z,3.30
2018-09-24T15:06:54.916Z,3.52
2018-09-24T15:09:28.172Z,3.30
2018-09-24T15:12:01.855Z,2.83
2018-09-24T15:14:35.141Z,3.07
2018-09-24T15:17:08.293Z,3.83
2018-09-24T15:19:41.790Z,4.00
2018-09-24T15:22:17.371Z,4.20
2018-09-24T15:24:50.757Z,4.27
2018-09-24T15:27:24.029Z,3.03
2018-09-24T15:29:57.216Z,4.40
2018-09-24T15:32:30.699Z,4.00
2018-09-24T15:35:05.784Z,6.90
2018-09-24T15:37:39.021Z,4.73
2018-09-24T15:40:12.323Z,4.40
2018-09-24T15:42:46.562Z,2.57
2018-09-24T15:45:19.869Z,3.23
2018-09-24T15:47:53.358Z,2.37
2018-09-24T15:50:26.545Z,2.63
2018-09-24T15:52:59.755Z,2.50
2018-09-24T15:55:33.021Z,3.43
2018-09-24T15:58:06.201Z,3.57
2018-09-24T16:00:39.418Z,4.10
2018-09-24T16:03:12.648Z,2.87
2018-09-24T16:08:46.069Z,3.10
2018-09-24T16:11:19.538Z,2.50
2018-09-24T16:13:53.020Z,6.40
2018-09-24T16:16:26.289Z,4.10
2018-09-24T16:19:04.287Z,2.50
2018-09-24T16:21:37.668Z,3.87
2018-09-24T16:24:11.157Z,7.33
2018-09-24T16:26:44.670Z,6.43
2018-09-24T16:29:22.619Z,7.27
2018-09-24T16:31:56.256Z,3.97
2018-09-24T16:34:29.907Z,4.57
2018-09-24T16:37:03.474Z,8.23
2018-09-24T16:39:36.997Z,6.23
2018-09-24T16:42:10.391Z,6.47
2018-09-24T16:44:43.834Z,3.60
2018-09-24T16:47:17.221Z,4.17
2018-09-24T16:49:50.796Z,3.40
2018-09-24T16:52:24.115Z,4.80
2018-09-24T16:54:57.665Z,4.10
2018-09-24T16:57:32.694Z,3.90
2018-09-24T17:00:08.284Z,3.17
2018-09-24T17:02:41.728Z,1.73
2018-09-24T17:05:15.278Z,2.10
2018-09-24T17:07:48.557Z,1.87
2018-09-24T17:10:22.032Z,2.50
2018-09-24T17:12:55.443Z,3.33
2018-09-24T17:15:33.814Z,3.42
2018-09-24T17:18:07.366Z,2.77
2018-09-24T17:20:41.908Z,3.70
2018-09-24T17:23:15.340Z,5.45
2018-09-24T17:25:48.913Z,6.42
2018-09-24T17:28:22.324Z,5.12
2018-09-24T17:30:55.988Z,7.03
2018-09-24T17:33:29.343Z,3.58
2018-09-24T17:36:02.870Z,2.70
2018-09-24T17:38:36.476Z,2.47
2018-09-24T17:41:10.439Z,5.67
2018-09-24T17:43:43.919Z,3.95
2018-09-24T17:46:17.456Z,4.10
2018-09-24T17:48:50.960Z,6.30
2018-09-24T17:51:24.549Z,3.42
2018-09-24T17:53:58.197Z,3.83
2018-09-24T17:56:31.574Z,5.25
2018-09-24T17:59:05.281Z,6.70
2018-09-24T18:01:38.827Z,6.85
2018-09-24T18:04:12.352Z,3.62
2018-09-24T18:06:45.837Z,2.85
2018-09-24T18:09:19.372Z,2.67
2018-09-24T18:11:52.891Z,3.45
2018-09-24T18:14:26.321Z,5.30
2018-09-24T18:16:59.787Z,2.77
2018-09-24T18:19:33.342Z,4.65
2018-09-24T18:22:06.868Z,5.45
2018-09-24T18:24:40.368Z,4.95
2018-09-24T18:27:14.005Z,6.55
2018-09-24T18:29:47.550Z,8.30
2018-09-24T18:32:22.620Z,6.72
2018-09-24T18:34:56.306Z,7.03
2018-09-24T18:37:30.064Z,3.33
2018-09-24T18:40:03.482Z,3.20
2018-09-24T18:42:37.207Z,3.72
2018-09-24T18:45:10.793Z,4.12
2018-09-24T18:47:45.018Z,3.52
2018-09-24T18:50:18.784Z,7.92
2018-09-24T18:52:52.852Z,5.53
2018-09-24T18:55:26.742Z,4.97
2018-09-24T18:58:00.354Z,6.17
2018-09-24T19:00:33.741Z,4.67
2018-09-24T19:03:07.321Z,5.78
2018-09-24T19:05:40.877Z,3.85
2018-09-24T19:08:14.412Z,4.70
2018-09-24T19:10:47.909Z,3.27
2018-09-24T19:13:21.305Z,3.87
2018-09-24T19:15:54.931Z,3.83
2018-09-24T19:18:29.721Z,5.45
2018-09-24T19:21:03.244Z,8.38
2018-09-24T19:23:36.670Z,5.78
2018-09-24T19:26:10.609Z,3.85
2018-09-24T19:28:44.192Z,8.68
2018-09-24T19:31:17.778Z,9.03
2018-09-24T19:33:52.730Z,5.03
2018-09-24T19:36:26.463Z,5.72
2018-09-24T19:39:00.229Z,4.10
2018-09-24T19:41:33.796Z,6.35
2018-09-24T19:44:07.383Z,3.50
2018-09-24T19:46:40.815Z,2.33
2018-09-24T19:49:14.336Z,7.92
2018-09-24T19:51:47.961Z,4.25
2018-09-24T19:54:21.701Z,4.00
2018-09-24T19:56:55.055Z,9.20
2018-09-24T19:59:28.541Z,4.28
2018-09-24T20:02:01.953Z,11.53
2018-09-24T20:04:35.302Z,3.75
2018-09-24T20:07:11.599Z,5.12
2018-09-24T20:09:44.960Z,4.97
2018-09-24T20:12:18.333Z,4.90
2018-09-24T20:14:51.886Z,4.08
2018-09-24T20:17:25.482Z,2.70
2018-09-24T20:19:59.306Z,3.50
2018-09-24T20:22:33.470Z,7.33
2018-09-24T20:25:07.207Z,6.97
2018-09-24T20:27:40.956Z,4.47
2018-09-24T20:30:14.541Z,2.87
2018-09-24T20:32:50.737Z,6.35
2018-09-24T20:35:24.248Z,6.05
2018-09-24T20:37:57.748Z,2.95
2018-09-24T20:40:31.362Z,6.05
2018-09-24T20:43:04.679Z,4.22
2018-09-24T20:45:38.248Z,5.17
2018-09-24T20:48:14.319Z,2.35
2018-09-24T20:50:54.000Z,3.80
2018-09-24T20:53:33.132Z,5.05
2018-09-24T20:56:09.549Z,5.20
2018-09-24T20:58:43.493Z,7.72
2018-09-24T21:01:16.890Z,4.65
2018-09-24T21:03:50.263Z,3.67
2018-09-24T21:06:23.879Z,5.35
2018-09-24T21:08:57.266Z,3.00
2018-09-24T21:11:31.720Z,3.25
2018-09-24T21:14:12.807Z,2.77
2018-09-24T21:17:15.670Z,5.87
2018-09-24T21:56:05.306Z,2.92
2018-09-24T21:58:46.186Z,8.53
2018-09-24T22:01:28.570Z,4.33
2018-09-24T22:04:08.330Z,2.95
2018-09-24T22:06:45.496Z,3.05
2018-09-24T22:09:18.875Z,4.55
2018-09-24T22:11:52.150Z,2.42
2018-09-24T22:14:25.612Z,2.92
2018-09-24T22:16:59.405Z,2.45
2018-09-24T22:19:32.734Z,7.28
2018-09-24T22:22:06.030Z,4.03
2018-09-24T22:24:39.159Z,4.53
2018-09-24T22:27:12.432Z,3.35
2018-09-24T22:29:45.820Z,5.50
2018-09-24T22:32:19.760Z,6.60
2018-09-24T22:34:53.211Z,6.45
2018-09-24T22:37:26.709Z,3.20
2018-09-24T22:39:59.818Z,3.00
2018-09-24T22:42:33.247Z,7.20
2018-09-24T22:45:06.696Z,2.70
2018-09-24T22:47:40.153Z,4.60
2018-09-24T22:50:13.310Z,4.40
2018-09-24T22:52:46.740Z,3.75
2018-09-24T22:55:19.943Z,3.75
2018-09-24T22:57:53.499Z,4.20
2018-09-24T23:00:27.009Z,2.98
2018-09-24T23:03:03.851Z,4.15
2018-09-24T23:05:37.004Z,6.60
2018-09-24T23:08:11.150Z,5.17
2018-09-24T23:10:44.536Z,3.37
2018-09-24T23:13:17.709Z,6.78
2018-09-24T23:15:51.070Z,4.12
2018-09-24T23:18:24.400Z,6.28
2018-09-24T23:20:59.674Z,3.95
2018-09-24T23:23:32.836Z,9.78
2018-09-24T23:26:06.068Z,5.67
2018-09-24T23:28:39.363Z,3.85
2018-09-24T23:31:13.689Z,3.95
2018-09-24T23:33:46.928Z,6.03
2018-09-24T23:36:20.084Z,3.90
2018-09-24T23:38:53.527Z,4.50
2018-09-24T23:41:28.365Z,5.45
2018-09-24T23:44:01.760Z,4.58
2018-09-24T23:46:35.134Z,7.53
2018-09-24T23:49:08.447Z,4.10
2018-09-24T23:51:41.612Z,4.78
2018-09-24T23:54:15.067Z,5.40
2018-09-24T23:56:48.230Z,4.03
2018-09-24T23:59:21.493Z,3.80
